createdAt,value
2019-01-13T00:02:39.803Z,1.60
2019-01-13T00:07:43.190Z,1.60
2019-01-13T00:12:46.566Z,1.60
2019-01-13T00:17:49.943Z,1.50
2019-01-13T00:22:53.323Z,1.50
2019-01-13T00:27:56.779Z,1.60
2019-01-13T00:33:00.243Z,1.60
2019-01-13T00:38:03.696Z,1.50
2019-01-13T00:43:07.080Z,1.60
2019-01-13T00:48:10.461Z,1.60
2019-01-13T00:53:13.834Z,1.50
2019-01-13T00:58:17.210Z,1.50
2019-01-13T01:03:20.587Z,1.60
2019-01-13T01:08:23.975Z,1.50
2019-01-13T01:13:27.356Z,1.60
2019-01-13T01:18:30.739Z,1.60
2019-01-13T01:23:35.480Z,1.60
2019-01-13T01:28:38.862Z,1.60
2019-01-13T01:33:42.240Z,1.50
2019-01-13T01:38:45.621Z,1.50
2019-01-13T01:43:49.000Z,1.60
2019-01-13T01:48:52.383Z,1.60
2019-01-13T01:53:55.762Z,1.60
2019-01-13T01:58:59.139Z,1.60
2019-01-13T02:04:02.546Z,1.60
2019-01-13T02:09:07.348Z,1.50
2019-01-13T02:14:10.733Z,1.60
2019-01-13T02:19:14.107Z,1.60
2019-01-13T02:24:17.486Z,1.50
2019-01-13T02:29:20.868Z,1.50
2019-01-13T02:34:24.247Z,1.60
2019-01-13T02:39:27.621Z,1.60
2019-01-13T02:44:30.996Z,1.60
2019-01-13T02:49:34.386Z,1.60
2019-01-13T02:54:37.772Z,1.60
2019-01-13T02:59:41.145Z,1.50
2019-01-13T03:04:44.527Z,1.50
2019-01-13T03:09:47.904Z,1.50
2019-01-13T03:14:51.358Z,1.50
2019-01-13T03:19:54.735Z,1.50
2019-01-13T03:24:58.111Z,1.50
2019-01-13T03:30:01.487Z,1.50
2019-01-13T03:35:06.704Z,1.50
2019-01-13T03:40:13.495Z,1.50
2019-01-13T03:45:17.019Z,1.50
2019-01-13T03:50:21.957Z,1.50
2019-01-13T03:55:25.589Z,1.50
2019-01-13T04:00:28.967Z,1.50
2019-01-13T04:05:32.378Z,1.50
2019-01-13T04:10:35.760Z,1.50
2019-01-13T04:15:41.170Z,1.50
2019-01-13T04:20:44.567Z,1.50
2019-01-13T04:25:47.951Z,1.50
2019-01-13T04:30:51.335Z,1.60
2019-01-13T04:35:54.718Z,1.60
2019-01-13T04:40:58.113Z,1.60
2019-01-13T04:46:02.336Z,1.60
2019-01-13T04:51:05.710Z,1.60
2019-01-13T04:56:09.083Z,1.60
2019-01-13T05:01:12.467Z,1.60
2019-01-13T05:06:15.855Z,1.60
2019-01-13T05:11:19.237Z,1.70
2019-01-13T05:16:22.621Z,1.70
2019-01-13T05:21:26.003Z,1.70
2019-01-13T05:26:29.387Z,1.70
2019-01-13T05:31:32.772Z,1.70
2019-01-13T05:36:36.152Z,1.70
2019-01-13T05:41:39.538Z,1.70
2019-01-13T05:46:42.928Z,1.70
2019-01-13T05:51:46.312Z,1.70
2019-01-13T05:56:49.695Z,1.70
2019-01-13T06:01:53.082Z,1.70
2019-01-13T06:06:56.458Z,1.70
2019-01-13T06:11:59.837Z,1.70
2019-01-13T06:17:03.210Z,1.70
2019-01-13T06:22:06.589Z,1.70
2019-01-13T06:27:09.977Z,1.70
2019-01-13T06:32:13.351Z,1.70
2019-01-13T06:37:16.748Z,1.70
2019-01-13T06:42:20.187Z,1.70
2019-01-13T06:47:23.568Z,1.70
2019-01-13T06:52:26.954Z,1.70
2019-01-13T06:57:30.344Z,1.70
2019-01-13T07:02:33.731Z,1.70
2019-01-13T07:07:37.539Z,1.70
2019-01-13T07:12:40.980Z,1.70
2019-01-13T07:17:44.432Z,1.70
2019-01-13T07:22:47.984Z,1.70
2019-01-13T07:27:51.368Z,1.70
2019-01-13T07:32:54.753Z,1.80
2019-01-13T07:37:58.140Z,1.80
2019-01-13T07:43:01.527Z,1.80
2019-01-13T07:48:04.974Z,1.80
2019-01-13T07:53:08.355Z,1.80
2019-01-13T07:58:11.732Z,1.90
2019-01-13T08:03:15.107Z,1.90
2019-01-13T08:08:18.499Z,1.90
2019-01-13T08:13:21.881Z,2.00
2019-01-13T08:18:25.261Z,2.00
2019-01-13T08:23:28.649Z,2.00
2019-01-13T08:28:32.018Z,2.00
2019-01-13T08:33:35.403Z,2.00
2019-01-13T08:38:38.798Z,2.10
2019-01-13T08:43:42.201Z,2.10
2019-01-13T08:48:45.584Z,2.10
2019-01-13T08:53:48.972Z,2.20
2019-01-13T08:58:52.356Z,2.20
2019-01-13T09:03:55.724Z,2.20
2019-01-13T09:08:59.104Z,2.20
2019-01-13T09:14:02.487Z,2.30
2019-01-13T09:19:05.935Z,2.30
2019-01-13T09:24:09.311Z,2.30
2019-01-13T09:29:12.706Z,2.40
2019-01-13T09:34:16.075Z,2.40
2019-01-13T09:39:19.451Z,2.40
2019-01-13T09:44:22.827Z,2.40
2019-01-13T09:49:26.207Z,2.50
2019-01-13T09:54:29.592Z,2.50
2019-01-13T09:59:32.971Z,2.50
2019-01-13T10:04:36.348Z,2.50
2019-01-13T10:09:39.731Z,2.60
2019-01-13T10:14:43.127Z,2.60
2019-01-13T10:19:46.508Z,2.60
2019-01-13T10:24:49.892Z,2.60
2019-01-13T10:29:53.266Z,2.60
2019-01-13T10:34:56.651Z,2.70
2019-01-13T10:40:00.047Z,2.70
2019-01-13T10:45:05.259Z,2.80
2019-01-13T10:50:12.079Z,2.80
2019-01-13T10:55:16.803Z,2.80
2019-01-13T11:00:22.955Z,2.80
2019-01-13T11:05:26.504Z,2.90
2019-01-13T11:10:29.890Z,2.90
2019-01-13T11:15:33.266Z,2.90
2019-01-13T11:20:36.795Z,2.90
2019-01-13T11:25:40.279Z,3.00
2019-01-13T11:30:43.669Z,3.00
2019-01-13T11:35:47.046Z,3.00
2019-01-13T11:40:50.420Z,3.00
2019-01-13T11:45:53.792Z,3.00
2019-01-13T11:50:57.169Z,3.00
2019-01-13T11:56:00.547Z,3.00
2019-01-13T12:01:04.267Z,3.10
2019-01-13T12:06:07.651Z,3.10
2019-01-13T12:11:11.027Z,3.10
2019-01-13T12:16:14.411Z,3.10
2019-01-13T12:21:17.795Z,3.10
2019-01-13T12:26:21.191Z,3.10
2019-01-13T12:31:24.567Z,3.10
2019-01-13T12:36:27.939Z,3.10
2019-01-13T12:41:31.327Z,3.10
2019-01-13T12:46:34.787Z,3.10
2019-01-13T12:51:38.182Z,3.10
2019-01-13T12:56:41.564Z,3.10
2019-01-13T13:01:44.945Z,3.10
2019-01-13T13:06:48.327Z,3.00
2019-01-13T13:11:51.707Z,3.00
2019-01-13T13:16:55.099Z,3.00
2019-01-13T13:21:58.469Z,2.90
2019-01-13T13:27:01.852Z,2.90
2019-01-13T13:32:05.232Z,2.90
2019-01-13T13:37:08.607Z,2.80
2019-01-13T13:42:11.996Z,2.80
2019-01-13T13:47:15.388Z,2.80
2019-01-13T13:52:18.774Z,2.70
2019-01-13T13:57:22.154Z,2.70
2019-01-13T14:02:25.555Z,2.70
2019-01-13T14:07:28.945Z,2.70
2019-01-13T14:12:32.319Z,2.60
2019-01-13T14:17:35.699Z,2.60
2019-01-13T14:22:39.103Z,2.60
2019-01-13T14:27:42.558Z,2.60
2019-01-13T14:32:46.020Z,2.60
2019-01-13T14:37:49.472Z,2.50
2019-01-13T14:42:52.851Z,2.50
2019-01-13T14:47:56.233Z,2.50
2019-01-13T14:52:59.683Z,2.50
2019-01-13T14:58:03.136Z,2.50
2019-01-13T15:03:06.588Z,2.50
2019-01-13T15:08:09.977Z,2.50
2019-01-13T15:13:13.343Z,2.50
2019-01-13T15:18:16.727Z,2.50
2019-01-13T15:23:20.111Z,2.50
2019-01-13T15:28:23.496Z,2.50
2019-01-13T15:33:26.895Z,2.50
2019-01-13T15:38:30.271Z,2.50
2019-01-13T15:43:33.651Z,2.50
2019-01-13T15:48:37.030Z,2.50
2019-01-13T15:53:40.428Z,2.50
2019-01-13T15:58:43.816Z,2.50
2019-01-13T16:03:47.192Z,2.50
2019-01-13T16:08:50.577Z,2.50
2019-01-13T16:13:53.955Z,2.50
2019-01-13T16:18:57.333Z,2.50
2019-01-13T16:24:00.727Z,2.50
2019-01-13T16:29:04.177Z,2.60
2019-01-13T16:34:07.553Z,2.60
2019-01-13T16:39:10.932Z,2.60
2019-01-13T16:44:14.328Z,2.70
2019-01-13T16:49:17.709Z,2.70
2019-01-13T16:54:21.097Z,2.70
2019-01-13T16:59:24.486Z,2.70
2019-01-13T17:04:29.034Z,2.70
2019-01-13T17:09:32.525Z,2.80
2019-01-13T17:14:35.903Z,2.80
2019-01-13T17:19:39.293Z,2.80
2019-01-13T17:24:42.688Z,2.80
2019-01-13T17:29:46.074Z,2.90
2019-01-13T17:34:49.473Z,2.90
2019-01-13T17:39:52.848Z,2.90
2019-01-13T17:44:56.219Z,3.00
2019-01-13T17:49:59.603Z,3.00
2019-01-13T17:55:02.983Z,3.00
2019-01-13T18:00:15.143Z,3.00
2019-01-13T18:05:18.519Z,3.10
2019-01-13T18:10:21.976Z,3.10
2019-01-13T18:15:25.359Z,3.20
2019-01-13T18:20:28.736Z,3.20
2019-01-13T18:25:32.106Z,3.30
2019-01-13T18:30:35.491Z,3.30
2019-01-13T18:35:38.867Z,3.30
2019-01-13T18:40:42.258Z,3.30
2019-01-13T18:45:45.691Z,3.40
2019-01-13T18:50:49.072Z,3.40
2019-01-13T18:55:52.455Z,3.40
2019-01-13T19:00:55.830Z,3.50
2019-01-13T19:05:59.231Z,3.50
2019-01-13T19:11:05.679Z,3.50
2019-01-13T19:16:11.971Z,3.60
2019-01-13T19:21:15.355Z,3.60
2019-01-13T19:26:18.731Z,3.60
2019-01-13T19:31:22.371Z,3.70
2019-01-13T19:36:25.739Z,3.70
2019-01-13T19:41:29.124Z,3.80
2019-01-13T19:46:32.506Z,3.80
2019-01-13T19:51:35.888Z,3.80
2019-01-13T19:56:39.292Z,3.80
2019-01-13T20:01:42.706Z,3.90
2019-01-13T20:06:46.093Z,3.90
2019-01-13T20:11:49.471Z,3.90
2019-01-13T20:16:52.875Z,4.00
2019-01-13T20:21:56.255Z,4.00
2019-01-13T20:26:59.631Z,4.00
2019-01-13T20:32:03.008Z,4.00
2019-01-13T20:37:06.383Z,4.10
2019-01-13T20:42:09.760Z,4.10
2019-01-13T20:47:13.145Z,4.10
2019-01-13T20:52:16.527Z,4.10
2019-01-13T20:57:19.908Z,4.20
2019-01-13T21:02:23.286Z,4.20
2019-01-13T21:07:26.663Z,4.20
2019-01-13T21:12:30.127Z,4.30
2019-01-13T21:17:33.508Z,4.30
2019-01-13T21:22:36.894Z,4.30
2019-01-13T21:27:40.291Z,4.30
2019-01-13T21:32:43.679Z,4.30
2019-01-13T21:37:47.087Z,4.40
2019-01-13T21:42:50.460Z,4.40
2019-01-13T21:47:53.876Z,4.40
2019-01-13T21:52:57.466Z,4.40
2019-01-13T21:58:00.838Z,4.40
2019-01-13T22:03:04.563Z,4.40
2019-01-13T22:08:08.027Z,4.40
2019-01-13T22:13:11.423Z,4.40
2019-01-13T22:18:14.801Z,4.40
2019-01-13T22:23:18.171Z,4.50
2019-01-13T22:28:21.554Z,4.50
2019-01-13T22:33:24.931Z,4.50
2019-01-13T22:38:28.320Z,4.60
2019-01-13T22:43:31.699Z,4.60
2019-01-13T22:48:35.075Z,4.60
2019-01-13T22:53:38.458Z,4.60
2019-01-13T22:58:41.842Z,4.70
2019-01-13T23:03:45.298Z,4.70
2019-01-13T23:08:48.689Z,4.70
2019-01-13T23:13:52.063Z,4.70
2019-01-13T23:18:55.439Z,4.70
2019-01-13T23:23:58.827Z,4.70
2019-01-13T23:29:02.201Z,4.80
2019-01-13T23:34:05.644Z,4.80
2019-01-13T23:39:09.101Z,4.80
2019-01-13T23:44:12.482Z,4.70
2019-01-13T23:49:15.854Z,4.70
2019-01-13T23:54:19.236Z,4.70
2019-01-13T23:59:22.623Z,4.60
